Time;durP1;ratioP1;P1;durP2;ratioP2;P2;SDS_P1;SDS_P2;PMS_P1;PMS_P2;Temp;Humidity;BMP_temperature;BMP_pressure;BME280_temperature;BME280_humidity;BME280_pressure;Samples;Min_cycle;Max_cycle;Signal;HPM_P1;HPM_P2
2021/01/03 00:01:09;;;;;;;34.95;21.48;;;3.20;99.90;;;;;;5073962;28;20203;-77
2021/01/03 00:03:36;;;;;;;36.97;19.48;;;3.10;99.90;;;;;;5076079;28;20190;-77
2021/01/03 00:06:02;;;;;;;42.72;23.70;;;3.20;99.90;;;;;;5077915;28;20203;-78
2021/01/03 00:08:28;;;;;;;39.38;20.05;;;3.20;99.90;;;;;;5091903;28;20179;-77
2021/01/03 00:10:53;;;;;;;35.03;19.90;;;3.20;99.90;;;;;;5072708;28;20707;-77
2021/01/03 00:13:19;;;;;;;37.70;21.27;;;3.20;99.90;;;;;;5083334;28;20720;-77
2021/01/03 00:15:45;;;;;;;40.93;21.60;;;3.20;99.90;;;;;;5055466;28;20179;-76
2021/01/03 00:18:10;;;;;;;32.23;20.77;;;3.20;99.90;;;;;;5092998;28;20251;-77
2021/01/03 00:20:37;;;;;;;44.80;22.60;;;3.10;99.90;;;;;;5091992;28;20171;-77
2021/01/03 00:23:04;;;;;;;37.38;21.70;;;3.10;99.90;;;;;;5092670;28;20179;-77
2021/01/03 00:25:30;;;;;;;42.67;21.77;;;3.20;99.90;;;;;;5073133;28;20259;-76
2021/01/03 00:27:55;;;;;;;38.00;20.83;;;3.20;99.90;;;;;;5067542;28;20172;-77
2021/01/03 00:30:24;;;;;;;34.17;21.00;;;3.10;99.90;;;;;;5072950;28;20629;-76
2021/01/03 00:32:51;;;;;;;45.10;21.70;;;3.20;99.90;;;;;;5086550;28;20233;-77
2021/01/03 00:35:25;;;;;;;38.17;21.80;;;3.20;99.90;;;;;;5091450;28;20571;-76
2021/01/03 00:37:51;;;;;;;42.97;23.08;;;3.20;99.90;;;;;;5059025;28;20276;-77
2021/01/03 00:40:20;;;;;;;36.63;20.97;;;3.20;99.90;;;;;;5073220;28;20168;-77
2021/01/03 00:42:46;;;;;;;37.33;21.77;;;3.20;99.90;;;;;;5071253;28;20492;-76
2021/01/03 00:45:12;;;;;;;40.90;21.73;;;3.20;99.90;;;;;;5071797;28;20250;-77
2021/01/03 00:47:38;;;;;;;37.85;21.17;;;3.10;99.90;;;;;;5054339;28;20207;-77
2021/01/03 00:50:08;;;;;;;47.37;23.53;;;3.10;99.90;;;;;;5073067;28;20174;-76
2021/01/03 00:52:34;;;;;;;43.08;22.45;;;3.10;99.90;;;;;;5052741;28;20209;-77
2021/01/03 00:55:00;;;;;;;37.85;21.25;;;3.10;99.90;;;;;;5066793;28;20175;-77
2021/01/03 00:57:26;;;;;;;43.35;23.05;;;3.20;99.90;;;;;;5049677;28;20206;-78
2021/01/03 00:59:51;;;;;;;42.07;21.83;;;3.20;99.90;;;;;;5051764;28;20260;-77
2021/01/03 01:02:17;;;;;;;44.17;21.90;;;3.20;99.90;;;;;;5059296;28;20210;-77
2021/01/03 01:04:43;;;;;;;46.73;23.30;;;3.20;99.90;;;;;;5079351;28;20291;-76
2021/01/03 01:07:08;;;;;;;46.40;21.30;;;3.20;99.90;;;;;;5088758;28;20233;-77
2021/01/03 01:09:34;;;;;;;41.77;21.90;;;3.10;99.90;;;;;;5087960;28;20179;-77
2021/01/03 01:12:00;;;;;;;38.60;20.17;;;3.10;99.90;;;;;;5080993;28;20297;-76
2021/01/03 01:14:26;;;;;;;36.90;19.13;;;3.10;99.90;;;;;;5082915;28;20179;-77
2021/01/03 01:16:51;;;;;;;43.33;21.77;;;3.10;99.90;;;;;;5077420;28;20449;-76
2021/01/03 01:19:17;;;;;;;45.73;22.10;;;3.10;99.90;;;;;;5082251;28;20191;-77
2021/01/03 01:21:43;;;;;;;41.23;21.23;;;3.00;99.90;;;;;;5086419;28;20978;-76
2021/01/03 01:24:09;;;;;;;37.93;19.20;;;3.10;99.90;;;;;;5080152;28;20198;-76
2021/01/03 01:26:34;;;;;;;37.83;20.83;;;3.10;99.90;;;;;;5071897;28;20689;-77
2021/01/03 01:29:00;;;;;;;42.17;21.13;;;3.10;99.90;;;;;;5087901;28;20420;-78
2021/01/03 01:31:26;;;;;;;42.27;22.60;;;3.10;99.90;;;;;;5086823;28;20516;-77
2021/01/03 01:33:52;;;;;;;35.17;20.87;;;3.20;99.90;;;;;;5077306;28;20203;-77
2021/01/03 01:36:17;;;;;;;36.90;21.83;;;3.30;99.90;;;;;;5073123;28;20206;-77
2021/01/03 01:38:43;;;;;;;39.47;23.73;;;3.20;99.90;;;;;;5086565;28;20224;-77
2021/01/03 01:41:09;;;;;;;42.80;23.43;;;3.20;99.90;;;;;;5072018;28;20209;-77
2021/01/03 01:43:34;;;;;;;39.63;22.33;;;3.20;99.90;;;;;;5083486;28;20183;-77
2021/01/03 01:46:01;;;;;;;37.77;22.80;;;3.10;99.90;;;;;;5065355;28;20195;-77
2021/01/03 01:48:39;;;;;;;31.83;20.42;;;3.10;99.90;;;;;;5074721;28;20565;-77
2021/01/03 01:51:19;;;;;;;37.40;22.10;;;3.10;99.90;;;;;;5087052;28;20211;-77
2021/01/03 01:54:03;;;;;;;33.70;20.90;;;3.10;99.90;;;;;;5084045;28;20199;-77
2021/01/03 01:56:48;;;;;;;39.90;22.30;;;3.10;99.90;;;;;;5082546;28;20253;-76
2021/01/03 01:59:28;;;;;;;37.88;21.58;;;3.10;99.90;;;;;;5090499;28;20269;-76
2021/01/03 02:02:03;;;;;;;38.72;23.13;;;3.10;99.90;;;;;;5071474;28;20212;-77
2021/01/03 02:04:37;;;;;;;41.92;22.23;;;3.10;99.90;;;;;;5057788;28;20163;-77
2021/01/03 02:07:18;;;;;;;38.83;23.02;;;3.10;99.90;;;;;;5074875;28;20746;-77
2021/01/03 02:10:14;;;;;;;37.25;20.77;;;3.00;99.90;;;;;;5077591;28;20167;-76
2021/01/03 02:12:43;;;;;;;35.05;20.50;;;3.10;99.90;;;;;;5086587;28;20266;-77
2021/01/03 02:15:26;;;;;;;43.25;20.95;;;3.10;99.90;;;;;;5088483;28;20171;-76
2021/01/03 02:17:52;;;;;;;44.53;22.13;;;3.10;99.90;;;;;;5086094;28;20298;-77
2021/01/03 02:20:18;;;;;;;36.05;22.90;;;3.00;99.90;;;;;;5095444;28;20824;-77
2021/01/03 02:23:01;;;;;;;39.30;23.60;;;3.00;99.90;;;;;;5075788;28;20694;-77
2021/01/03 02:25:26;;;;;;;47.05;24.45;;;3.00;99.90;;;;;;5075189;28;20426;-77
2021/01/03 02:27:58;;;;;;;40.00;22.87;;;3.00;99.90;;;;;;5073893;28;20306;-77
2021/01/03 02:30:25;;;;;;;37.63;22.48;;;3.00;99.90;;;;;;5074987;28;20187;-76
2021/01/03 02:33:16;;;;;;;41.63;23.23;;;3.00;99.90;;;;;;5077166;28;20214;-76
2021/01/03 02:35:43;;;;;;;42.70;23.17;;;3.10;99.90;;;;;;5081117;28;20607;-76
2021/01/03 02:38:10;;;;;;;40.72;21.65;;;3.00;99.90;;;;;;5095366;28;20187;-77
2021/01/03 02:40:35;;;;;;;43.60;22.33;;;3.10;99.90;;;;;;5094889;28;20174;-77
2021/01/03 02:43:01;;;;;;;37.30;22.07;;;3.10;99.90;;;;;;5077677;28;20199;-77
2021/01/03 02:45:30;;;;;;;43.13;23.80;;;3.00;99.90;;;;;;5093400;28;20650;-77
2021/01/03 02:48:09;;;;;;;40.00;21.45;;;3.10;99.90;;;;;;5093707;28;20206;-77
2021/01/03 02:50:35;;;;;;;38.72;23.38;;;3.10;99.90;;;;;;5093478;28;20182;-77
2021/01/03 02:53:01;;;;;;;34.42;22.02;;;3.10;99.90;;;;;;5093059;28;20187;-77
2021/01/03 02:55:27;;;;;;;37.50;22.80;;;3.10;99.90;;;;;;5092902;28;20237;-77
2021/01/03 02:57:52;;;;;;;34.40;22.63;;;3.10;99.90;;;;;;5093009;28;20199;-77
2021/01/03 03:00:30;;;;;;;35.73;21.00;;;3.00;99.90;;;;;;5092987;28;20180;-77
2021/01/03 03:02:57;;;;;;;37.58;24.38;;;3.00;99.90;;;;;;5092738;28;20546;-78
2021/01/03 03:05:23;;;;;;;36.50;22.35;;;3.00;99.90;;;;;;5074808;28;20168;-78
2021/01/03 03:07:50;;;;;;;33.10;22.30;;;3.00;99.90;;;;;;5092561;28;20217;-77
2021/01/03 03:10:17;;;;;;;37.78;22.08;;;3.00;99.90;;;;;;5093467;28;20180;-77
2021/01/03 03:12:55;;;;;;;36.13;21.33;;;3.00;99.90;;;;;;5092434;28;20299;-77
2021/01/03 03:15:22;;;;;;;44.53;23.38;;;3.00;99.90;;;;;;5092618;28;20174;-77
2021/01/03 03:17:49;;;;;;;35.78;21.95;;;3.00;99.90;;;;;;5092708;28;20264;-77
2021/01/03 03:20:15;;;;;;;39.38;22.63;;;2.90;99.90;;;;;;5092781;28;20168;-77
2021/01/03 03:22:41;;;;;;;32.80;20.83;;;2.90;99.90;;;;;;5093475;28;20680;-77
2021/01/03 03:25:08;;;;;;;33.60;19.93;;;2.90;99.90;;;;;;5094980;28;20202;-76
2021/01/03 03:27:34;;;;;;;36.95;21.60;;;2.90;99.90;;;;;;5093104;28;20468;-77
2021/01/03 03:30:00;;;;;;;31.60;21.45;;;3.00;99.90;;;;;;5094008;28;20654;-77
2021/01/03 03:32:26;;;;;;;37.43;22.00;;;2.90;99.90;;;;;;5075227;28;20298;-76
2021/01/03 03:34:52;;;;;;;31.80;21.30;;;3.00;99.90;;;;;;5093926;28;20194;-77
2021/01/03 03:37:18;;;;;;;36.53;20.53;;;3.00;99.90;;;;;;5073787;28;20453;-77
2021/01/03 03:39:44;;;;;;;37.95;20.67;;;3.00;99.90;;;;;;5092783;28;20205;-77
2021/01/03 03:42:10;;;;;;;36.60;21.25;;;3.00;99.90;;;;;;5091734;28;20226;-78
2021/01/03 03:44:36;;;;;;;35.67;20.20;;;3.00;99.90;;;;;;5092458;28;20199;-78
2021/01/03 03:47:03;;;;;;;31.47;19.77;;;3.00;99.90;;;;;;5093145;28;20199;-76
2021/01/03 03:49:31;;;;;;;30.58;19.95;;;2.90;99.90;;;;;;5093931;28;20452;-76
2021/01/03 03:52:01;;;;;;;36.60;21.20;;;2.90;99.90;;;;;;5093640;28;20221;-77
2021/01/03 03:54:28;;;;;;;33.75;20.25;;;2.90;99.90;;;;;;5075364;28;20175;-76
2021/01/03 03:56:59;;;;;;;37.33;21.55;;;2.90;99.90;;;;;;5093753;28;20641;-76
2021/01/03 03:59:26;;;;;;;34.50;20.77;;;2.90;99.90;;;;;;5076222;28;20242;-76
2021/01/03 04:01:52;;;;;;;34.95;22.40;;;2.90;99.90;;;;;;5093397;28;20630;-77
2021/01/03 04:04:19;;;;;;;39.88;22.10;;;2.90;99.90;;;;;;5092392;28;20278;-78
2021/01/03 04:06:45;;;;;;;31.98;20.95;;;3.00;99.90;;;;;;5091853;28;20294;-77
2021/01/03 04:09:12;;;;;;;31.55;19.63;;;3.00;99.90;;;;;;5093351;28;20645;-77
2021/01/03 04:11:39;;;;;;;32.08;20.70;;;3.00;99.90;;;;;;5074523;28;20241;-77
2021/01/03 04:14:06;;;;;;;31.40;19.35;;;3.00;99.90;;;;;;5093239;28;20677;-77
2021/01/03 04:16:31;;;;;;;35.47;22.50;;;3.00;99.90;;;;;;5092410;28;20562;-77
2021/01/03 04:18:57;;;;;;;28.90;19.77;;;2.90;99.90;;;;;;5092457;28;20209;-77
2021/01/03 04:21:23;;;;;;;33.20;19.87;;;2.90;99.90;;;;;;5091316;28;20226;-76
2021/01/03 04:23:48;;;;;;;29.10;19.30;;;2.80;99.90;;;;;;5093143;28;20194;-76
2021/01/03 04:26:18;;;;;;;32.63;19.40;;;2.80;99.90;;;;;;5092449;28;20203;-76
2021/01/03 04:28:45;;;;;;;34.40;21.02;;;2.80;99.90;;;;;;5094725;28;20206;-76
2021/01/03 04:31:11;;;;;;;30.50;19.48;;;2.90;99.90;;;;;;5092961;28;20211;-77
2021/01/03 04:33:39;;;;;;;29.00;19.03;;;2.80;99.90;;;;;;5075979;28;20687;-76
2021/01/03 04:36:05;;;;;;;31.23;20.70;;;2.80;99.90;;;;;;5092936;28;20441;-77
2021/01/03 04:38:31;;;;;;;30.43;19.07;;;2.80;99.90;;;;;;5093126;28;20257;-77
2021/01/03 04:40:56;;;;;;;33.37;19.27;;;2.90;99.90;;;;;;5092596;28;20291;-77
2021/01/03 04:43:24;;;;;;;30.13;18.93;;;2.80;99.90;;;;;;5092816;28;20468;-76
2021/01/03 04:45:57;;;;;;;31.20;21.38;;;2.90;99.90;;;;;;5092503;28;20214;-77
2021/01/03 04:48:27;;;;;;;32.80;20.05;;;2.80;99.90;;;;;;5093099;28;20691;-76
2021/01/03 04:51:20;;;;;;;36.60;19.10;;;2.80;99.90;;;;;;5093106;28;20218;-77
2021/01/03 04:53:55;;;;;;;30.88;21.42;;;2.90;99.90;;;;;;5080012;28;20219;-76
2021/01/03 04:56:41;;;;;;;33.45;19.77;;;2.80;99.90;;;;;;5090300;28;20202;-77
2021/01/03 04:59:24;;;;;;;33.38;19.17;;;2.90;99.90;;;;;;5077510;28;20210;-77
2021/01/03 05:02:37;;;;;;;33.28;19.33;;;2.90;99.90;;;;;;5079003;28;20685;-77
2021/01/03 05:05:23;;;;;;;31.02;18.52;;;2.90;99.90;;;;;;5085833;28;20275;-76
2021/01/03 05:08:13;;;;;;;28.65;19.95;;;2.90;99.90;;;;;;5060779;28;20211;-76
2021/01/03 05:10:39;;;;;;;31.42;19.05;;;2.90;99.90;;;;;;5091624;28;20175;-77
2021/01/03 05:13:20;;;;;;;29.03;18.97;;;2.90;99.90;;;;;;5090792;28;20187;-77
2021/01/03 05:15:46;;;;;;;28.90;19.35;;;2.90;99.90;;;;;;5090368;28;20182;-77
2021/01/03 05:18:12;;;;;;;33.80;19.00;;;2.80;99.90;;;;;;5091465;28;20187;-77
2021/01/03 05:20:38;;;;;;;29.38;19.70;;;2.80;99.90;;;;;;5090262;28;20174;-77
2021/01/03 05:23:17;;;;;;;34.17;20.00;;;2.90;99.90;;;;;;5091056;28;20188;-78
2021/01/03 05:25:45;;;;;;;27.20;19.23;;;2.90;99.90;;;;;;5076715;28;20163;-77
2021/01/03 05:28:19;;;;;;;33.13;20.77;;;2.90;99.90;;;;;;5074416;28;20178;-77
2021/01/03 05:30:45;;;;;;;32.75;19.00;;;2.90;99.90;;;;;;5074206;28;20182;-77
2021/01/03 05:33:15;;;;;;;35.83;20.70;;;2.90;99.90;;;;;;5092586;28;20194;-76
2021/01/03 05:35:43;;;;;;;34.72;21.05;;;2.90;99.90;;;;;;5072280;28;20175;-77
2021/01/03 05:38:11;;;;;;;32.05;19.80;;;2.90;99.90;;;;;;5090973;28;20293;-77
2021/01/03 05:40:43;;;;;;;31.35;21.52;;;3.00;99.90;;;;;;5090269;28;20638;-77
2021/01/03 05:43:23;;;;;;;33.00;21.63;;;2.90;99.90;;;;;;5090614;28;20198;-78
2021/01/03 05:46:14;;;;;;;31.00;20.17;;;2.90;99.90;;;;;;5059080;28;20207;-77
2021/01/03 05:49:04;;;;;;;28.98;19.20;;;2.90;99.90;;;;;;5090902;28;20179;-77
2021/01/03 05:51:41;;;;;;;32.90;20.35;;;2.90;99.90;;;;;;5092192;28;20234;-77
2021/01/03 05:54:13;;;;;;;31.92;20.42;;;2.90;99.90;;;;;;5078571;28;20616;-77
2021/01/03 05:56:41;;;;;;;29.30;19.83;;;2.80;99.90;;;;;;5095241;28;20211;-77
2021/01/03 05:59:06;;;;;;;29.95;20.85;;;2.80;99.90;;;;;;5094533;28;20199;-77
2021/01/03 06:01:34;;;;;;;29.70;18.90;;;2.80;99.90;;;;;;5094269;28;20336;-76
2021/01/03 06:04:09;;;;;;;31.67;19.52;;;2.80;99.90;;;;;;5095747;28;20795;-77
2021/01/03 06:06:50;;;;;;;29.83;20.17;;;2.80;99.90;;;;;;5095280;28;20228;-77
2021/01/03 06:09:38;;;;;;;31.10;19.30;;;2.80;99.90;;;;;;5095452;28;20170;-77
2021/01/03 06:12:17;;;;;;;26.13;17.73;;;2.80;99.90;;;;;;5094267;28;20203;-77
2021/01/03 06:14:46;;;;;;;29.80;19.63;;;2.80;99.90;;;;;;5075396;28;20175;-77
2021/01/03 06:17:14;;;;;;;33.45;20.15;;;2.80;99.90;;;;;;5093022;28;20211;-78
2021/01/03 06:19:52;;;;;;;27.80;18.50;;;2.80;99.90;;;;;;5093812;28;20680;-77
2021/01/03 06:22:44;;;;;;;29.83;20.77;;;2.80;99.90;;;;;;5093827;28;20232;-76
2021/01/03 06:25:43;;;;;;;28.60;19.50;;;2.80;99.90;;;;;;5092590;28;20641;-76
2021/01/03 06:28:43;;;;;;;30.92;19.35;;;2.80;99.90;;;;;;5094452;28;20203;-77
2021/01/03 06:31:21;;;;;;;33.25;20.40;;;2.80;99.90;;;;;;5049909;28;20226;-76
2021/01/03 06:34:16;;;;;;;33.35;20.10;;;2.80;99.90;;;;;;5080560;28;20183;-77
2021/01/03 06:36:57;;;;;;;27.27;19.00;;;2.80;99.90;;;;;;5093304;28;20580;-77
2021/01/03 06:39:59;;;;;;;34.50;19.10;;;2.80;99.90;;;;;;5095061;28;20680;-76
2021/01/03 06:42:42;;;;;;;31.20;17.75;;;2.80;99.90;;;;;;5075923;28;20210;-76
2021/01/03 06:45:45;;;;;;;28.35;19.17;;;2.80;99.90;;;;;;5094741;28;20525;-76
2021/01/03 06:48:27;;;;;;;24.73;17.38;;;2.80;99.90;;;;;;5093712;28;20228;-77
2021/01/03 06:51:22;;;;;;;29.60;18.05;;;2.80;99.90;;;;;;5092435;28;20253;-77
2021/01/03 06:54:28;;;;;;;26.70;17.35;;;2.80;99.90;;;;;;5091237;28;20199;-78
2021/01/03 06:57:11;;;;;;;25.90;17.75;;;2.80;99.90;;;;;;5074075;28;20344;-78
2021/01/03 06:59:57;;;;;;;27.80;17.98;;;2.80;99.90;;;;;;5072933;28;20191;-78
2021/01/03 07:02:23;;;;;;;25.27;17.45;;;2.80;99.90;;;;;;5091680;28;20260;-77
2021/01/03 07:04:49;;;;;;;31.10;17.45;;;2.80;99.90;;;;;;5092076;28;20171;-77
2021/01/03 07:07:23;;;;;;;33.70;19.40;;;2.80;99.90;;;;;;5073693;28;20627;-77
2021/01/03 07:09:57;;;;;;;28.60;18.25;;;2.80;99.90;;;;;;5093475;28;20414;-77
2021/01/03 07:12:40;;;;;;;32.13;19.05;;;2.80;99.90;;;;;;5093627;28;20206;-77
2021/01/03 07:15:26;;;;;;;27.90;17.50;;;2.80;99.90;;;;;;5093915;28;20197;-77
2021/01/03 07:17:52;;;;;;;23.83;16.17;;;2.80;99.90;;;;;;5093455;28;20685;-77
2021/01/03 07:20:35;;;;;;;30.30;19.00;;;2.80;99.90;;;;;;5094539;28;20238;-77
2021/01/03 07:23:07;;;;;;;28.25;17.60;;;2.80;99.90;;;;;;5093744;28;20195;-76
2021/01/03 07:25:45;;;;;;;24.15;16.75;;;2.80;99.90;;;;;;5093938;28;20175;-76
2021/01/03 07:28:15;;;;;;;23.92;17.77;;;2.80;99.90;;;;;;5094131;28;20177;-76
2021/01/03 07:30:53;;;;;;;28.40;16.75;;;2.80;99.90;;;;;;5092178;28;20187;-78
2021/01/03 07:33:27;;;;;;;24.67;16.42;;;2.80;99.90;;;;;;5075665;28;20210;-76
2021/01/03 07:35:53;;;;;;;30.42;19.20;;;2.80;99.90;;;;;;5093799;28;20206;-77
2021/01/03 07:38:25;;;;;;;27.20;17.00;;;2.80;99.90;;;;;;5092299;28;20197;-77
2021/01/03 07:41:00;;;;;;;28.95;17.30;;;2.80;99.90;;;;;;5074781;28;20432;-77
2021/01/03 07:43:26;;;;;;;27.15;16.45;;;2.80;99.90;;;;;;5094192;28;20186;-76
2021/01/03 07:45:53;;;;;;;28.17;17.02;;;2.80;99.90;;;;;;5093137;28;20246;-77
2021/01/03 07:48:42;;;;;;;26.90;17.50;;;2.80;99.90;;;;;;5093470;28;20648;-77
2021/01/03 07:51:32;;;;;;;26.55;17.65;;;2.80;99.90;;;;;;5062225;28;20256;-76
2021/01/03 07:53:57;;;;;;;24.40;16.90;;;2.80;99.90;;;;;;5071428;28;20192;-78
2021/01/03 07:56:27;;;;;;;26.50;17.17;;;2.80;99.90;;;;;;5073730;28;20210;-77
2021/01/03 08:01:24;;;;;;;25.70;16.80;;;2.80;99.90;;;;;;5029322;28;20231;-76
2021/01/03 08:03:50;;;;;;;29.23;17.55;;;2.80;99.90;;;;;;5033364;28;20244;-77
2021/01/03 08:06:19;;;;;;;23.35;15.55;;;2.80;99.90;;;;;;5030886;28;20208;-77
2021/01/03 08:08:55;;;;;;;28.35;19.25;;;2.80;99.90;;;;;;5015256;28;20165;-77
2021/01/03 08:11:33;;;;;;;21.95;16.67;;;2.80;99.90;;;;;;5033972;28;20199;-77
2021/01/03 08:14:02;;;;;;;26.40;17.65;;;2.80;99.90;;;;;;5052382;28;20181;-77
2021/01/03 08:16:30;;;;;;;25.90;17.45;;;2.80;99.90;;;;;;5052623;28;20257;-77
2021/01/03 08:19:04;;;;;;;25.17;17.08;;;2.80;99.90;;;;;;5035084;28;20659;-77
2021/01/03 08:21:35;;;;;;;29.42;17.52;;;2.80;99.90;;;;;;5050626;28;20249;-77
2021/01/03 08:24:04;;;;;;;28.23;15.65;;;2.80;99.90;;;;;;5033325;28;20189;-77
2021/01/03 08:26:53;;;;;;;22.23;16.02;;;2.90;99.90;;;;;;5032872;28;20208;-77
2021/01/03 08:29:39;;;;;;;23.95;16.92;;;2.90;99.90;;;;;;5049539;28;20184;-77
2021/01/03 08:32:18;;;;;;;26.10;15.75;;;2.90;99.90;;;;;;5015226;28;20208;-77
2021/01/03 08:34:44;;;;;;;23.02;15.73;;;2.90;99.90;;;;;;5030228;28;20175;-76
2021/01/03 08:37:28;;;;;;;26.07;17.23;;;2.90;99.90;;;;;;5034411;28;20678;-77
2021/01/03 08:39:55;;;;;;;26.50;16.05;;;2.90;99.90;;;;;;5052984;28;20188;-77
2021/01/03 08:42:29;;;;;;;25.60;15.73;;;2.90;99.90;;;;;;5033348;28;20215;-78
2021/01/03 08:44:57;;;;;;;22.17;16.75;;;3.00;99.90;;;;;;5050771;28;20480;-77
2021/01/03 08:47:31;;;;;;;25.23;16.02;;;3.00;99.90;;;;;;5049809;28;20204;-77
2021/01/03 08:50:11;;;;;;;23.33;15.77;;;3.00;99.90;;;;;;5050604;28;20216;-78
2021/01/03 08:52:37;;;;;;;24.10;16.05;;;3.00;99.90;;;;;;5050153;28;20196;-77
2021/01/03 08:55:18;;;;;;;23.10;16.50;;;3.10;99.90;;;;;;5051018;28;20650;-77
2021/01/03 08:57:52;;;;;;;22.75;16.90;;;3.00;99.90;;;;;;5032623;28;20223;-77
2021/01/03 09:00:21;;;;;;;22.70;16.35;;;3.00;99.90;;;;;;5034070;28;20180;-77
2021/01/03 09:02:48;;;;;;;24.55;17.13;;;3.00;99.90;;;;;;5034767;28;20462;-76
2021/01/03 09:05:18;;;;;;;21.77;15.80;;;3.00;99.90;;;;;;5051422;28;20169;-77
2021/01/03 09:07:48;;;;;;;23.42;15.00;;;3.00;99.90;;;;;;5048768;28;20220;-76
2021/01/03 09:10:26;;;;;;;26.25;17.98;;;3.10;99.90;;;;;;5049396;28;20180;-77
2021/01/03 09:13:17;;;;;;;27.48;16.58;;;3.00;99.90;;;;;;5035742;28;20308;-76
2021/01/03 09:15:46;;;;;;;27.20;16.10;;;3.00;99.90;;;;;;5035644;28;20533;-77
2021/01/03 09:18:31;;;;;;;22.40;15.90;;;3.00;99.90;;;;;;5053336;28;20192;-76
2021/01/03 09:21:10;;;;;;;25.45;16.83;;;3.00;99.90;;;;;;5035895;28;20548;-76
2021/01/03 09:23:41;;;;;;;23.83;15.77;;;3.10;99.90;;;;;;5016139;28;20521;-76
2021/01/03 09:26:09;;;;;;;27.63;16.90;;;3.10;99.90;;;;;;5052609;28;20294;-77
2021/01/03 09:28:40;;;;;;;27.52;16.67;;;3.10;99.90;;;;;;5058505;28;20173;-76
2021/01/03 09:31:14;;;;;;;21.90;15.63;;;3.10;99.90;;;;;;5056719;28;20208;-76
2021/01/03 09:33:44;;;;;;;21.00;15.55;;;3.10;99.90;;;;;;5057140;28;20219;-76
2021/01/03 09:36:33;;;;;;;23.55;16.92;;;3.00;99.90;;;;;;5039761;28;20234;-77
2021/01/03 09:39:40;;;;;;;23.35;16.15;;;3.10;99.90;;;;;;5031394;28;20208;-76
2021/01/03 09:42:12;;;;;;;23.13;15.13;;;3.10;99.90;;;;;;5037593;28;20637;-77
2021/01/03 09:45:06;;;;;;;19.60;15.15;;;3.10;99.90;;;;;;5059098;28;20725;-76
2021/01/03 09:47:43;;;;;;;19.92;14.95;;;3.10;99.90;;;;;;5040135;28;20574;-77
2021/01/03 09:50:41;;;;;;;19.00;15.30;;;3.10;99.90;;;;;;5058445;28;20643;-76
2021/01/03 09:53:19;;;;;;;18.50;12.88;;;3.10;99.90;;;;;;5029243;28;20634;-77
2021/01/03 09:55:52;;;;;;;20.70;13.88;;;3.20;99.90;;;;;;5052963;28;20195;-77
2021/01/03 09:58:18;;;;;;;25.13;15.18;;;3.10;99.90;;;;;;5053818;28;20199;-77
2021/01/03 10:00:57;;;;;;;20.70;14.30;;;3.10;99.90;;;;;;5054004;28;20180;-76
2021/01/03 10:03:42;;;;;;;17.58;13.98;;;3.10;99.90;;;;;;5040350;28;20435;-76
2021/01/03 10:06:33;;;;;;;17.05;13.30;;;3.10;99.90;;;;;;5037268;28;20262;-77
2021/01/03 10:09:17;;;;;;;18.63;13.13;;;3.20;99.90;;;;;;5056470;28;20180;-77
2021/01/03 10:11:47;;;;;;;17.70;12.82;;;3.20;99.90;;;;;;5085597;23;20223;-77
2021/01/03 10:14:33;;;;;;;14.80;12.32;;;3.30;99.90;;;;;;5082081;28;20183;-77
2021/01/03 10:17:20;;;;;;;15.63;11.55;;;3.30;99.90;;;;;;5052025;28;20663;-77
2021/01/03 10:19:47;;;;;;;17.02;12.93;;;3.30;99.90;;;;;;5063285;28;20254;-76
2021/01/03 10:22:26;;;;;;;16.27;11.23;;;3.30;99.90;;;;;;5055794;28;20235;-77
2021/01/03 10:25:01;;;;;;;20.38;12.75;;;3.30;99.90;;;;;;5073328;28;20174;-77
2021/01/03 10:27:27;;;;;;;16.40;12.25;;;3.20;99.90;;;;;;5082658;28;20579;-77
2021/01/03 10:29:53;;;;;;;18.40;12.68;;;3.20;99.90;;;;;;5069768;28;20184;-77
2021/01/03 10:32:20;;;;;;;17.90;12.35;;;3.20;99.90;;;;;;5058414;28;20604;-76
2021/01/03 10:34:45;;;;;;;19.10;12.27;;;3.20;99.90;;;;;;5078834;28;20172;-77
2021/01/03 10:37:11;;;;;;;21.10;13.20;;;3.20;99.90;;;;;;5069586;28;20219;-77
2021/01/03 10:39:37;;;;;;;16.40;12.23;;;3.20;99.90;;;;;;5074189;28;20187;-77
2021/01/03 10:42:05;;;;;;;15.60;12.10;;;3.20;99.90;;;;;;5080786;28;20216;-76
2021/01/03 10:44:31;;;;;;;17.75;13.43;;;3.20;99.90;;;;;;5074756;28;20164;-76
2021/01/03 10:46:57;;;;;;;15.13;10.73;;;3.30;99.90;;;;;;5086347;28;20222;-78
2021/01/03 10:49:24;;;;;;;16.77;12.30;;;3.40;99.90;;;;;;5098334;28;20192;-77
2021/01/03 10:51:58;;;;;;;14.10;11.77;;;3.40;99.90;;;;;;5080172;28;20712;-77
2021/01/03 10:54:26;;;;;;;20.55;13.18;;;3.40;99.90;;;;;;5077094;28;20198;-76
2021/01/03 10:56:56;;;;;;;16.52;11.25;;;3.40;99.90;;;;;;5080391;28;20214;-78
2021/01/03 10:59:24;;;;;;;13.25;11.25;;;3.30;99.90;;;;;;5055042;28;20613;-78
2021/01/03 11:01:49;;;;;;;15.80;12.20;;;3.30;99.90;;;;;;5070097;28;20288;-77
2021/01/03 11:04:17;;;;;;;15.60;11.43;;;3.30;99.90;;;;;;5094860;28;20574;-77
2021/01/03 11:06:47;;;;;;;17.88;13.20;;;3.30;99.90;;;;;;5070235;28;20430;-77
2021/01/03 11:09:22;;;;;;;14.18;11.30;;;3.30;99.90;;;;;;5074955;28;20175;-77
2021/01/03 11:12:02;;;;;;;13.45;11.07;;;3.40;99.90;;;;;;5060775;28;20207;-77
2021/01/03 11:14:28;;;;;;;17.90;11.30;;;3.40;99.90;;;;;;5071384;28;20183;-76
2021/01/03 11:16:55;;;;;;;14.10;10.73;;;3.50;99.90;;;;;;5096553;28;20570;-76
2021/01/03 11:19:22;;;;;;;14.80;11.73;;;3.40;99.90;;;;;;5096552;28;20947;-77
2021/01/03 11:21:53;;;;;;;15.30;11.82;;;3.40;99.90;;;;;;5092647;28;20218;-77
2021/01/03 11:24:19;;;;;;;15.18;12.07;;;3.50;99.90;;;;;;5082930;28;20195;-78
2021/01/03 11:26:45;;;;;;;15.93;11.47;;;3.50;99.90;;;;;;5076364;28;20254;-77
2021/01/03 11:29:14;;;;;;;21.17;13.57;;;3.50;99.90;;;;;;5088893;28;20663;-77
2021/01/03 11:31:46;;;;;;;15.80;12.23;;;3.40;99.90;;;;;;5074646;28;20219;-78
2021/01/03 11:34:16;;;;;;;17.17;12.57;;;3.40;99.90;;;;;;5087080;28;20573;-78
2021/01/03 11:36:57;;;;;;;14.38;11.35;;;3.50;99.90;;;;;;5077667;28;20215;-77
2021/01/03 11:39:24;;;;;;;14.70;10.93;;;3.40;99.90;;;;;;5058541;28;20204;-77
2021/01/03 11:41:51;;;;;;;16.05;12.43;;;3.50;99.90;;;;;;5060651;28;20291;-77
2021/01/03 11:44:19;;;;;;;14.40;11.18;;;3.50;99.90;;;;;;5064567;28;20195;-78
2021/01/03 11:46:46;;;;;;;12.15;10.85;;;3.50;99.90;;;;;;5052160;28;20716;-77
2021/01/03 11:49:12;;;;;;;14.45;10.77;;;3.50;99.90;;;;;;5085506;28;20187;-77
2021/01/03 11:51:38;;;;;;;13.60;11.70;;;3.50;99.90;;;;;;5079519;28;20208;-78
2021/01/03 11:54:04;;;;;;;14.40;10.20;;;3.50;99.90;;;;;;5072213;28;20425;-77
2021/01/03 11:56:31;;;;;;;11.98;9.75;;;3.50;99.90;;;;;;5074805;28;20301;-78
2021/01/03 11:58:57;;;;;;;15.93;10.50;;;3.50;99.90;;;;;;5081722;28;20196;-77
2021/01/03 12:01:24;;;;;;;14.63;10.60;;;3.50;99.90;;;;;;5070548;28;20571;-77
2021/01/03 12:03:51;;;;;;;12.23;10.20;;;3.50;99.90;;;;;;5058307;28;20816;-78
2021/01/03 12:06:21;;;;;;;17.75;11.35;;;3.50;99.90;;;;;;5075133;28;20212;-76
2021/01/03 12:08:48;;;;;;;13.82;9.65;;;3.50;99.90;;;;;;5086677;28;20172;-77
2021/01/03 12:11:18;;;;;;;12.98;10.48;;;3.50;99.90;;;;;;5071451;28;20211;-77
2021/01/03 12:13:52;;;;;;;11.65;10.00;;;3.50;99.90;;;;;;5054648;28;20196;-77
2021/01/03 12:16:25;;;;;;;12.65;9.80;;;3.50;99.90;;;;;;5072128;28;20214;-77
2021/01/03 12:18:51;;;;;;;11.18;8.85;;;3.40;99.90;;;;;;5076115;28;20195;-77
2021/01/03 12:21:22;;;;;;;11.40;9.10;;;3.40;99.90;;;;;;5074832;28;20215;-77
2021/01/03 12:23:48;;;;;;;9.18;8.18;;;3.50;99.90;;;;;;5076659;28;20821;-77
2021/01/03 12:26:14;;;;;;;14.13;9.00;;;3.50;99.90;;;;;;5069741;28;20224;-77
2021/01/03 12:28:41;;;;;;;12.70;9.80;;;3.50;99.90;;;;;;5074618;28;20175;-76
2021/01/03 12:31:07;;;;;;;9.75;8.30;;;3.40;99.90;;;;;;5079237;28;20990;-77
2021/01/03 12:33:32;;;;;;;9.07;7.80;;;3.40;99.90;;;;;;5073841;28;20267;-77
2021/01/03 12:35:58;;;;;;;10.70;9.37;;;3.40;99.90;;;;;;5080455;28;20256;-77
2021/01/03 12:38:24;;;;;;;10.00;8.70;;;3.40;99.90;;;;;;5092700;28;20668;-77
2021/01/03 12:40:50;;;;;;;11.10;8.00;;;3.40;99.90;;;;;;5075041;28;20291;-77
2021/01/03 12:43:15;;;;;;;9.83;7.73;;;3.40;99.90;;;;;;5082653;28;20179;-77
2021/01/03 12:45:42;;;;;;;12.27;8.80;;;3.40;99.90;;;;;;5095806;28;20204;-77
2021/01/03 12:48:08;;;;;;;10.13;7.95;;;3.40;99.90;;;;;;5079683;28;20251;-77
2021/01/03 12:50:34;;;;;;;10.70;7.77;;;3.40;99.90;;;;;;5093952;28;20261;-77
2021/01/03 12:53:02;;;;;;;9.77;8.47;;;3.40;99.90;;;;;;5058929;28;20279;-77
2021/01/03 12:55:28;;;;;;;8.98;7.30;;;3.50;99.90;;;;;;5082488;28;20559;-78
2021/01/03 12:57:53;;;;;;;10.80;7.27;;;3.40;99.90;;;;;;5052762;28;20263;-78
2021/01/03 13:00:19;;;;;;;9.60;7.93;;;3.40;99.90;;;;;;5074281;28;20164;-77
2021/01/03 13:02:45;;;;;;;10.10;7.90;;;3.40;99.90;;;;;;5072367;28;20208;-77
2021/01/03 13:05:12;;;;;;;10.20;8.23;;;3.30;99.90;;;;;;5076553;28;20190;-77